Centre Hospitalier Heliport

FR-0119 · Aveyron, Languedoc-Roussillon-Midi-Pyrénées, France

METAR anciennes FR-0119 · Centre Hospitalier Heliport

Tu vois ci-dessous les METAR des derniers jours. Sélectionne une année pour parcourir les METAR plus anciens, à partir de l'année 2007.

15 juillet 2024

Temps Code Temps Temp. Vue Base cloud Vent METAR/SPECI
14:00
V
27 °C 10 km+ - 200° 200° 9 kt METAR LFCR 151200Z AUTO 20009KT 140V240 9999 FEW033/// SCT170/// //////CB 27/19 Q1014 TEMPO 31018G30KT 4000 TSRA
13:30
V
27 °C 10 km+ 3.200 ft 210° 210° 10 kt METAR LFCR 151130Z AUTO 21010KT 170V260 9999 BKN032 BKN041 BKN160 27/19 Q1014 TEMPO 31018G30KT 4000 TSRA SCT035CB
13:00
V
26 °C 10 km+ 3.900 ft 200° 200° 7 kt METAR LFCR 151100Z AUTO 20007KT 150V230 9999 SCT033 BKN039 26/19 Q1013 BECMG 29010KT SCT040TCU
12:30
V
27 °C 10 km+ - 120° 120° 11 kt METAR LFCR 151030Z AUTO 12011KT CAVOK 27/19 Q1013 BECMG 29010KT SCT040TCU
12:00
V
26 °C 10 km+ - 140° 140° 12 kt METAR LFCR 151000Z AUTO 14012KT 110V170 CAVOK 26/19 Q1012 BECMG 29010KT SCT040TCU
11:30
V
26 °C 10 km+ - 130° 130° 14 kt METAR LFCR 150930Z AUTO 13014KT CAVOK 26/19 Q1012 BECMG 29010KT SCT040TCU
11:00
V
26 °C 10 km+ - 120° 120° 13 kt METAR LFCR 150900Z AUTO 12013KT CAVOK 26/19 Q1012 NOSIG
10:30
V
25 °C 10 km+ - 130° 130° 15 kt METAR LFCR 150830Z AUTO 13015KT 090V150 CAVOK 25/18 Q1012 NOSIG
10:00
V
24 °C 10 km+ - 120° 120° 14 kt METAR LFCR 150800Z AUTO 12014KT CAVOK 24/18 Q1012 NOSIG
09:30
V
23 °C 10 km+ - 120° 120° 14 kt METAR LFCR 150730Z AUTO 12014KT CAVOK 23/18 Q1012 NOSIG
09:00
V
22 °C 10 km+ - 120° 120° 15 kt METAR LFCR 150700Z AUTO 12015KT CAVOK 22/17 Q1012 NOSIG
08:30
V
21 °C 10 km+ - 130° 130° 15 kt METAR LFCR 150630Z AUTO 13015KT CAVOK 21/17 Q1013 NOSIG
08:00
V
20 °C 10 km+ - 130° 130° 10 kt METAR LFCR 150600Z AUTO 13010KT CAVOK 20/17 Q1012 NOSIG
07:30
V
19 °C 10 km+ - 140° 140° 7 kt METAR LFCR 150530Z AUTO 14007KT CAVOK 19/16 Q1012 NOSIG
07:00
I
18 °C 2,2 km - 130° 130° 3 kt METAR LFCR 150500Z AUTO 13003KT 9999 2200 NSC 18/16 Q1012 NOSIG
06:30
V
19 °C 10 km+ - 120° 120° 6 kt METAR LFCR 150430Z AUTO 12006KT CAVOK 19/17 Q1012 NOSIG
06:00
V
18 °C 10 km+ - 110° 110° 7 kt METAR LFCR 150400Z AUTO 11007KT CAVOK 18/16 Q1012 NOSIG
05:30
V
19 °C 10 km+ - 090° 090° 4 kt METAR LFCR 150330Z AUTO 09004KT CAVOK 19/17 Q1012 NOSIG
05:00
V
19 °C 10 km+ - 120° 120° 6 kt METAR LFCR 150300Z AUTO 12006KT CAVOK 19/17 Q1012 NOSIG
04:30
V
19 °C 10 km+ - 110° 110° 4 kt METAR LFCR 150230Z AUTO 11004KT CAVOK 19/17 Q1013 NOSIG
04:00
V
20 °C 10 km+ - 110° 110° 3 kt METAR LFCR 150200Z AUTO 11003KT CAVOK 20/17 Q1013 NOSIG
03:30
V
20 °C 10 km+ - 110° 110° 3 kt METAR LFCR 150130Z AUTO 11003KT CAVOK 20/18 Q1013 NOSIG
03:00
V
20 °C 10 km+ - 140° 140° 5 kt METAR LFCR 150100Z AUTO 14005KT CAVOK 20/18 Q1013 NOSIG
02:30
V
21 °C 10 km+ - 080° 080° 5 kt METAR LFCR 150030Z AUTO 08005KT 050V130 9999 ///TCU 21/18 Q1013 BECMG NSC
02:00
V
21 °C 10 km+ - 120° 120° 6 kt METAR LFCR 150000Z AUTO 12006KT 9999 //////TCU 21/19 Q1014 BECMG NSC
01:30
V
19 °C 10 km+ - 150° 150° 3 kt METAR LFCR 142330Z AUTO 15003KT 9999 ///TCU 19/18 Q1015 BECMG NSC
01:00
V
19 °C 10 km+ - 190° 190° 2 kt METAR LFCR 142300Z AUTO 19002KT 9999 //////TCU 19/17 Q1015 BECMG NSC
00:30
V
19 °C 10 km+ - 190° 190° 2 kt METAR LFCR 142230Z AUTO 19002KT CAVOK 19/17 Q1015 NOSIG
00:00
V
19 °C 10 km+ - 210° 210° 3 kt METAR LFCR 142200Z AUTO 21003KT CAVOK 19/17 Q1015 NOSIG

14 juillet 2024

Temps Code Temps Temp. Vue Base cloud Vent METAR/SPECI
23:30
V
20 °C 10 km+ - 230° 230° 1 kt METAR LFCR 142130Z AUTO 23001KT CAVOK 20/17 Q1015 NOSIG
23:00
V
21 °C 10 km+ - Var Var 2 kt METAR LFCR 142100Z AUTO VRB02KT CAVOK 21/18 Q1015 NOSIG
22:30
V
21 °C 10 km+ - Var Var 3 kt METAR LFCR 142030Z AUTO VRB03KT CAVOK 21/18 Q1015 NOSIG
22:00
V
21 °C 10 km+ - 280° 280° 4 kt METAR LFCR 142000Z AUTO 28004KT CAVOK 21/18 Q1014 NOSIG
21:30
V
22 °C 10 km+ - 290° 290° 7 kt METAR LFCR 141930Z AUTO 29007KT CAVOK 22/17 Q1014 NOSIG
21:00
V
24 °C 10 km+ - 300° 300° 6 kt METAR LFCR 141900Z AUTO 30006KT CAVOK 24/18 Q1014 NOSIG
20:30
V
26 °C 10 km+ - 320° 320° 7 kt METAR LFCR 141830Z AUTO 32007KT CAVOK 26/19 Q1014 NOSIG
20:00
V
26 °C 10 km+ - 300° 300° 8 kt METAR LFCR 141800Z AUTO 30008KT CAVOK 26/20 Q1014 NOSIG
19:30
V
27 °C 10 km+ - 320° 320° 6 kt METAR LFCR 141730Z AUTO 32006KT CAVOK 27/19 Q1013 NOSIG
19:00
V
29 °C 10 km+ - 250° 250° 3 kt METAR LFCR 141700Z AUTO 25003KT 210V300 CAVOK 29/20 Q1013 NOSIG
18:30
V
29 °C 10 km+ - 210° 210° 5 kt METAR LFCR 141630Z AUTO 21005KT 170V230 CAVOK 29/16 Q1013 NOSIG
18:00
V
29 °C 10 km+ - Var Var 3 kt METAR LFCR 141600Z AUTO VRB03KT CAVOK 29/16 Q1013 NOSIG
17:30
V
29 °C 10 km+ - 190° 190° 4 kt METAR LFCR 141530Z AUTO 19004KT 110V270 CAVOK 29/16 Q1013 NOSIG
17:00
V
29 °C 10 km+ - 230° 230° 4 kt METAR LFCR 141500Z AUTO 23004KT 200V310 CAVOK 29/16 Q1013 NOSIG
16:30
V
29 °C 10 km+ - Var Var 4 kt METAR LFCR 141430Z AUTO VRB04KT CAVOK 29/16 Q1013 NOSIG
16:00
V
28 °C 10 km+ - 200° 200° 5 kt METAR LFCR 141400Z AUTO 20005KT 140V230 CAVOK 28/15 Q1013 NOSIG
15:30
V
28 °C 10 km+ - 190° 190° 6 kt METAR LFCR 141330Z AUTO 19006KT 160V220 CAVOK 28/16 Q1013 NOSIG
15:00
V
28 °C 10 km+ - 090° 090° 4 kt METAR LFCR 141300Z AUTO 09004KT 040V130 CAVOK 28/15 Q1013 NOSIG
14:30
V
28 °C 10 km+ - 130° 130° 4 kt METAR LFCR 141230Z AUTO 13004KT 050V200 CAVOK 28/16 Q1013 NOSIG
14:00
V
27 °C 10 km+ - 140° 140° 4 kt METAR LFCR 141200Z AUTO 14004KT 040V190 CAVOK 27/15 Q1013 NOSIG
13:30
V
27 °C 10 km+ - 110° 110° 5 kt METAR LFCR 141130Z AUTO 11005KT 060V170 CAVOK 27/14 Q1013 NOSIG
13:00
V
27 °C 10 km+ - 120° 120° 6 kt METAR LFCR 141100Z AUTO 12006KT 360V170 CAVOK 27/15 Q1013 NOSIG
12:30
V
26 °C 10 km+ - 090° 090° 5 kt METAR LFCR 141030Z AUTO 09005KT 040V140 CAVOK 26/15 Q1013 NOSIG
12:00
V
25 °C 10 km+ - 100° 100° 4 kt METAR LFCR 141000Z AUTO 10004KT 030V160 CAVOK 25/14 Q1013 NOSIG
11:30
V
24 °C 10 km+ - 100° 100° 4 kt METAR LFCR 140930Z AUTO 10004KT 060V120 CAVOK 24/13 Q1013 NOSIG
11:00
V
23 °C 10 km+ - 090° 090° 4 kt METAR LFCR 140900Z AUTO 09004KT 040V140 CAVOK 23/13 Q1013 NOSIG
10:30
V
22 °C 10 km+ - 100° 100° 5 kt METAR LFCR 140830Z AUTO 10005KT 060V130 CAVOK 22/12 Q1013 NOSIG
10:00
V
20 °C 10 km+ - 100° 100° 6 kt METAR LFCR 140800Z AUTO 10006KT CAVOK 20/12 Q1013 NOSIG
09:30
V
19 °C 10 km+ - 080° 080° 5 kt METAR LFCR 140730Z AUTO 08005KT CAVOK 19/12 Q1013 NOSIG
09:00
V
17 °C 10 km+ - 080° 080° 4 kt METAR LFCR 140700Z AUTO 08004KT CAVOK 17/12 Q1013 NOSIG
08:30
V
16 °C 10 km+ - 110° 110° 4 kt METAR LFCR 140630Z AUTO 11004KT CAVOK 16/13 Q1014 NOSIG
08:00
V
14 °C 10 km+ - 120° 120° 4 kt METAR LFCR 140600Z AUTO 12004KT CAVOK 14/11 Q1013 NOSIG
07:30
V
13 °C 10 km+ - Var Var 2 kt METAR LFCR 140530Z AUTO VRB02KT CAVOK 13/11 Q1013 NOSIG
07:00
V
12 °C 10 km+ - 140° 140° 3 kt METAR LFCR 140500Z AUTO 14003KT CAVOK 12/10 Q1014 NOSIG
06:30
V
12 °C 10 km+ - 100° 100° 3 kt METAR LFCR 140430Z AUTO 10003KT CAVOK 12/11 Q1013 NOSIG
06:00
V
12 °C 10 km+ - 120° 120° 4 kt METAR LFCR 140400Z AUTO 12004KT CAVOK 12/11 Q1013 NOSIG
05:30
V
12 °C 10 km+ - 100° 100° 4 kt METAR LFCR 140330Z AUTO 10004KT CAVOK 12/11 Q1013 NOSIG
05:00
V
11 °C 10 km+ - 140° 140° 3 kt METAR LFCR 140300Z AUTO 14003KT CAVOK 11/10 Q1014 NOSIG
04:30
V
12 °C 10 km+ - 130° 130° 3 kt METAR LFCR 140230Z AUTO 13003KT CAVOK 12/10 Q1014 NOSIG
04:00
V
13 °C 10 km+ - 100° 100° 3 kt METAR LFCR 140200Z AUTO 10003KT CAVOK 13/11 Q1014 NOSIG
03:30
V
12 °C 10 km+ - 060° 060° 4 kt METAR LFCR 140130Z AUTO 06004KT CAVOK 12/11 Q1014 NOSIG
03:00
V
13 °C 10 km+ - 150° 150° 1 kt METAR LFCR 140100Z AUTO 15001KT CAVOK 13/11 Q1014 NOSIG
02:30
V
12 °C 10 km+ - 140° 140° 2 kt METAR LFCR 140030Z AUTO 14002KT CAVOK 12/11 Q1014 NOSIG
02:00
V
12 °C 10 km+ - 160° 160° 3 kt METAR LFCR 140000Z AUTO 16003KT CAVOK 12/11 Q1014 NOSIG
01:30
V
13 °C 10 km+ - 140° 140° 2 kt METAR LFCR 132330Z AUTO 14002KT CAVOK 13/11 Q1015 NOSIG
01:00
V
13 °C 10 km+ - Var Var 2 kt METAR LFCR 132300Z AUTO VRB02KT CAVOK 13/11 Q1015 NOSIG
00:30
V
14 °C 10 km+ - 150° 150° 2 kt METAR LFCR 132230Z AUTO 15002KT CAVOK 14/11 Q1015 NOSIG
00:00
V
14 °C 10 km+ - 140° 140° 3 kt METAR LFCR 132200Z AUTO 14003KT CAVOK 14/11 Q1015 NOSIG

13 juillet 2024

Temps Code Temps Temp. Vue Base cloud Vent METAR/SPECI
23:30
V
15 °C 10 km+ - 130° 130° 2 kt METAR LFCR 132130Z AUTO 13002KT CAVOK 15/11 Q1015 NOSIG
23:00
V
16 °C 10 km+ - Var Var 1 kt METAR LFCR 132100Z AUTO VRB01KT CAVOK 16/10 Q1015 NOSIG
22:30
V
17 °C 10 km+ - 330° 330° 3 kt METAR LFCR 132030Z AUTO 33003KT CAVOK 17/11 Q1015 NOSIG
22:00
V
17 °C 10 km+ - 310° 310° 5 kt METAR LFCR 132000Z AUTO 31005KT CAVOK 17/12 Q1015 NOSIG
21:30
V
18 °C 10 km+ - 330° 330° 3 kt METAR LFCR 131930Z AUTO 33003KT CAVOK 18/11 Q1014 NOSIG
21:00
V
19 °C 10 km+ - 300° 300° 3 kt METAR LFCR 131900Z AUTO 30003KT CAVOK 19/10 Q1014 NOSIG
20:30
V
20 °C 10 km+ - Var Var 3 kt METAR LFCR 131830Z AUTO VRB03KT CAVOK 20/10 Q1014 NOSIG
20:00
V
20 °C 10 km+ - 260° 260° 3 kt METAR LFCR 131800Z AUTO 26003KT 230V320 CAVOK 20/10 Q1014 NOSIG
19:30
V
20 °C 10 km+ - 270° 270° 4 kt METAR LFCR 131730Z AUTO 27004KT 210V310 CAVOK 20/09 Q1014 NOSIG
19:00
V
21 °C 10 km+ - 310° 310° 3 kt METAR LFCR 131700Z AUTO 31003KT 220V360 CAVOK 21/09 Q1014 NOSIG
18:30
V
21 °C 10 km+ - Var Var 2 kt METAR LFCR 131630Z AUTO VRB02KT CAVOK 21/10 Q1014 NOSIG
18:00
V
21 °C 10 km+ - 310° 310° 3 kt METAR LFCR 131600Z AUTO 31003KT 250V020 CAVOK 21/09 Q1014 NOSIG
17:30
V
21 °C 10 km+ - Var Var 3 kt METAR LFCR 131530Z AUTO VRB03KT CAVOK 21/11 Q1015 NOSIG
17:00
V
21 °C 10 km+ - Var Var 3 kt METAR LFCR 131500Z AUTO VRB03KT CAVOK 21/09 Q1015 NOSIG
16:30
V
20 °C 10 km+ - Var Var 3 kt METAR LFCR 131430Z AUTO VRB03KT CAVOK 20/09 Q1015 NOSIG
16:00
V
20 °C 10 km+ - 330° 330° 4 kt METAR LFCR 131400Z AUTO 33004KT 260V060 CAVOK 20/10 Q1015 NOSIG
15:30
V
19 °C 10 km+ - 350° 350° 4 kt METAR LFCR 131330Z AUTO 35004KT 320V050 CAVOK 19/10 Q1015 NOSIG
15:00
V
19 °C 10 km+ - Var Var 3 kt METAR LFCR 131300Z AUTO VRB03KT CAVOK 19/09 Q1015 NOSIG
14:30
V
19 °C 10 km+ - Var Var 4 kt METAR LFCR 131230Z AUTO VRB04KT CAVOK 19/09 Q1016 NOSIG
14:00
V
18 °C 10 km+ - 300° 300° 8 kt METAR LFCR 131200Z AUTO 30008KT 270V340 CAVOK 18/09 Q1016 NOSIG
13:30
V
18 °C 10 km+ - 300° 300° 7 kt METAR LFCR 131130Z AUTO 30007KT 250V360 CAVOK 18/08 Q1016 NOSIG
13:00
V
17 °C 10 km+ 21.000 ft Var Var 4 kt METAR LFCR 131100Z AUTO VRB04KT 9999 FEW031 BKN210 17/10 Q1016 NOSIG
12:30
V
16 °C 10 km+ - Var Var 3 kt METAR LFCR 131030Z AUTO VRB03KT CAVOK 16/09 Q1016 NOSIG
12:00
V
16 °C 10 km+ - 320° 320° 5 kt METAR LFCR 131000Z AUTO 32005KT 270V010 CAVOK 16/10 Q1016 NOSIG
11:30
V
16 °C 10 km+ - 340° 340° 5 kt METAR LFCR 130930Z AUTO 34005KT 270V010 CAVOK 16/09 Q1016 NOSIG
11:00
V
15 °C 10 km+ 22.000 ft 320° 320° 6 kt METAR LFCR 130900Z AUTO 32006KT 270V350 9999 FEW022 BKN220 15/08 Q1017 NOSIG
10:30
V
14 °C 10 km+ - 320° 320° 6 kt METAR LFCR 130830Z AUTO 32006KT 290V350 9999 FEW001 SCT230 14/09 Q1017 NOSIG
10:00
M
14 °C 10 km+ 1.800 ft 330° 330° 6 kt METAR LFCR 130800Z AUTO 33006KT 300V360 9999 BKN018 14/09 Q1017 NOSIG
09:30
V
13 °C 10 km+ - 320° 320° 4 kt METAR LFCR 130730Z AUTO 32004KT 260V020 9999 SCT016 SCT220 13/09 Q1017 NOSIG
09:00
V
13 °C 10 km+ - Var Var 1 kt METAR LFCR 130700Z AUTO VRB01KT CAVOK 13/10 Q1017 NOSIG
08:30
V
12 °C 10 km+ - 350° 350° 3 kt METAR LFCR 130630Z AUTO 35003KT 300V040 CAVOK 12/09 Q1017 NOSIG
08:00
V
11 °C 10 km+ - Var Var 3 kt METAR LFCR 130600Z AUTO VRB03KT CAVOK 11/09 Q1017 NOSIG
Signaler les modifications